Time;durP1;ratioP1;P1;durP2;ratioP2;P2;SDS_P1;SDS_P2;PMS_P1;PMS_P2;Temp;Humidity;BMP_temperature;BMP_pressure;BME280_temperature;BME280_humidity;BME280_pressure;Samples;Min_cycle;Max_cycle;Signal;HPM_P1;HPM_P2
2022/01/28 00:00:06;;;;;;;12.25;6.90;;;;;;;2.16;100.00;99976.59;5031025;28;20046;-71
2022/01/28 00:05:17;;;;;;;13.02;6.55;;;;;;;2.16;100.00;99973.09;5023160;28;20060;-71
2022/01/28 00:07:42;;;;;;;11.15;6.57;;;;;;;2.26;100.00;99984.75;5032297;28;20096;-71
2022/01/28 00:10:08;;;;;;;14.40;7.00;;;;;;;2.15;100.00;99974.91;5027990;28;20482;-71
2022/01/28 00:12:36;;;;;;;12.82;7.50;;;;;;;2.35;100.00;99992.00;5020876;28;20399;-71
2022/01/28 00:15:12;;;;;;;13.75;7.13;;;;;;;2.37;100.00;99992.75;5023177;28;20075;-71
2022/01/28 00:18:07;;;;;;;11.73;6.75;;;;;;;2.35;100.00;99993.84;5030951;28;20025;-72
2022/01/28 00:36:42;;;;;;;13.70;7.43;;;;;;;2.37;100.00;100003.44;5027002;28;20036;-71
2022/01/28 00:39:22;;;;;;;14.48;7.20;;;;;;;2.28;100.00;99980.13;5028808;28;20075;-71
2022/01/28 00:41:47;;;;;;;14.35;6.93;;;;;;;2.28;100.00;99965.91;5024689;28;20445;-71
2022/01/28 00:44:12;;;;;;;15.02;7.43;;;;;;;2.42;100.00;100003.06;5022371;28;20026;-70
2022/01/28 00:46:38;;;;;;;11.98;6.68;;;;;;;2.25;100.00;99966.16;5030874;28;20041;-71
2022/01/28 00:49:03;;;;;;;13.23;7.30;;;;;;;2.23;100.00;99962.75;5029902;28;20029;-71
2022/01/28 00:51:28;;;;;;;12.15;6.80;;;;;;;2.42;100.00;99987.03;5024999;28;20414;-70
2022/01/28 00:53:53;;;;;;;13.95;7.53;;;;;;;2.45;100.00;99978.78;5021477;28;20091;-70
2022/01/28 00:56:19;;;;;;;15.38;7.15;;;;;;;2.41;100.00;99990.66;5030624;28;20025;-70
2022/01/28 00:58:44;;;;;;;12.45;6.95;;;;;;;2.20;100.00;99966.50;5017368;28;20053;-70
2022/01/28 01:01:09;;;;;;;14.15;7.45;;;;;;;2.31;100.00;99990.56;5025042;28;20506;-70
2022/01/28 01:03:34;;;;;;;14.18;7.28;;;;;;;2.14;100.00;99975.88;5019919;28;20033;-71
2022/01/28 01:06:00;;;;;;;16.65;7.35;;;;;;;1.99;100.00;99947.69;5019270;28;20025;-71
2022/01/28 01:08:25;;;;;;;12.95;6.50;;;;;;;2.10;100.00;99982.44;5031159;28;20033;-71
2022/01/28 01:10:52;;;;;;;12.30;6.75;;;;;;;2.23;100.00;100009.03;5029526;28;20028;-71
2022/01/28 01:13:18;;;;;;;14.10;7.05;;;;;;;2.25;100.00;100016.88;5023174;28;20025;-71
2022/01/28 01:15:47;;;;;;;11.27;6.35;;;;;;;2.03;100.00;99983.88;5019099;28;20038;-71
2022/01/28 01:18:23;;;;;;;12.70;7.05;;;;;;;2.15;100.00;100016.78;5021636;28;20048;-71
2022/01/28 01:23:23;;;;;;;14.35;7.00;;;;;;;2.05;100.00;100016.63;5031024;28;20044;-71
2022/01/28 01:26:33;;;;;;;12.32;6.93;;;;;;;2.14;100.00;100033.75;5027409;28;20025;-71
2022/01/28 01:28:40;;;;;;;12.85;5.57;;;;;;;2.12;100.00;100030.34;5021989;28;20194;-71
2022/01/28 01:31:10;;;;;;;14.10;7.60;;;;;;;2.08;100.00;100015.56;5021888;28;20645;-71
2022/01/28 01:33:41;;;;;;;15.45;7.65;;;;;;;2.07;100.00;100041.41;5020412;28;20033;-71
2022/01/28 01:36:07;;;;;;;14.60;7.05;;;;;;;1.98;100.00;100023.41;5027358;28;20029;-71
2022/01/28 01:38:33;;;;;;;15.82;7.97;;;;;;;1.98;100.00;100032.25;5022416;28;20026;-71
2022/01/28 01:41:01;;;;;;;13.07;6.72;;;;;;;2.06;100.00;100045.03;5029012;28;20021;-71
2022/01/28 01:43:52;;;;;;;15.70;7.57;;;;;;;2.04;100.00;100046.94;5023805;28;20040;-72
2022/01/28 01:46:39;;;;;;;12.10;6.55;;;;;;;2.05;100.00;100058.50;5028392;28;20495;-70
2022/01/28 01:52:04;;;;;;;13.60;6.90;;;;;;;2.03;100.00;100057.75;5035383;28;20032;-71
2022/01/28 01:54:34;;;;;;;13.77;6.65;;;;;;;2.01;100.00;100051.69;5027158;28;20025;-70
2022/01/28 01:57:00;;;;;;;13.90;7.13;;;;;;;1.94;100.00;100059.31;5024463;28;20441;-70
2022/01/28 01:59:25;;;;;;;16.58;7.38;;;;;;;1.83;100.00;100075.28;5026958;28;20116;-71
2022/01/28 02:01:51;;;;;;;15.07;7.35;;;;;;;1.73;100.00;100064.47;5029076;28;20029;-70
2022/01/28 02:04:16;;;;;;;14.73;6.68;;;;;;;1.71;100.00;100074.41;5017583;28;20237;-71
2022/01/28 02:06:42;;;;;;;14.05;6.85;;;;;;;1.72;100.00;100078.78;5024135;28;20025;-71
2022/01/28 02:09:08;;;;;;;13.98;7.00;;;;;;;1.64;100.00;100059.81;5023202;28;20115;-71
2022/01/28 02:11:34;;;;;;;11.68;6.90;;;;;;;1.70;100.00;100078.03;5029997;28;20426;-71
2022/01/28 02:14:00;;;;;;;13.90;7.07;;;;;;;1.64;100.00;100075.81;5021384;28;20033;-71
2022/01/28 02:16:25;;;;;;;16.20;7.55;;;;;;;1.59;100.00;100078.84;5023926;28;20502;-71
2022/01/28 02:18:50;;;;;;;14.82;7.47;;;;;;;1.66;100.00;100081.91;5031508;28;20041;-71
2022/01/28 02:21:17;;;;;;;16.73;7.55;;;;;;;1.65;100.00;100073.06;5016778;28;20042;-71
2022/01/28 02:23:47;;;;;;;15.23;7.43;;;;;;;1.83;100.00;100076.13;5029430;28;20128;-71
2022/01/28 02:26:15;;;;;;;16.80;7.32;;;;;;;1.89;100.00;100073.00;5025704;28;20092;-71
2022/01/28 02:28:43;;;;;;;17.13;7.60;;;;;;;1.85;100.00;100063.53;5029813;28;20450;-71
2022/01/28 02:31:08;;;;;;;11.68;6.60;;;;;;;1.95;100.00;100083.22;5029504;28;20026;-71
2022/01/28 02:33:34;;;;;;;13.85;6.95;;;;;;;1.88;100.00;100057.09;5033237;28;20044;-71
2022/01/28 02:36:04;;;;;;;13.27;7.07;;;;;;;2.04;100.00;100084.31;5024062;28;20033;-71
2022/01/28 02:38:31;;;;;;;16.20;7.72;;;;;;;2.07;100.00;100075.22;5017785;28;20069;-71
2022/01/28 02:40:58;;;;;;;15.77;7.82;;;;;;;2.07;100.00;100069.88;5022795;28;20083;-71
2022/01/28 02:43:38;;;;;;;14.05;6.82;;;;;;;2.10;100.00;100069.69;5015646;28;20463;-71
2022/01/28 02:46:09;;;;;;;15.35;7.05;;;;;;;2.07;100.00;100072.56;5060013;23;20045;-73
2022/01/28 02:48:37;;;;;;;13.15;6.82;;;;;;;2.02;100.00;100074.72;5045643;28;20029;-72
2022/01/28 02:51:09;;;;;;;12.63;6.82;;;;;;;1.96;100.00;100065.38;5044874;28;20086;-72
2022/01/28 02:53:47;;;;;;;13.35;6.65;;;;;;;1.94;100.00;100065.50;5052057;28;20365;-72
2022/01/28 02:56:17;;;;;;;15.32;7.30;;;;;;;2.06;100.00;100084.22;5027649;28;20482;-72
2022/01/28 02:58:44;;;;;;;13.95;6.75;;;;;;;2.06;100.00;100076.22;5028911;28;20423;-72
2022/01/28 03:01:13;;;;;;;13.57;6.95;;;;;;;2.04;100.00;100087.00;5037484;28;20028;-72
2022/01/28 03:03:39;;;;;;;15.40;7.53;;;;;;;2.03;100.00;100087.13;5035003;28;20035;-72
2022/01/28 03:06:05;;;;;;;16.63;7.63;;;;;;;2.06;100.00;100068.19;5029530;28;20101;-74
2022/01/28 03:08:30;;;;;;;14.02;7.05;;;;;;;2.15;100.00;100091.53;5031091;28;20057;-74
2022/01/28 03:11:27;;;;;;;17.52;8.15;;;;;;;2.17;100.00;100089.56;5027743;28;20076;-75
2022/01/28 03:16:33;;;;;;;20.58;8.27;;;;;;;2.07;100.00;100077.91;5015252;28;20463;-72
2022/01/28 03:19:15;;;;;;;13.10;7.40;;;;;;;2.12;100.00;100081.06;5025778;28;20425;-72
2022/01/28 03:21:43;;;;;;;14.95;7.15;;;;;;;2.19;100.00;100103.66;5031097;28;20041;-72
2022/01/28 03:24:11;;;;;;;13.70;6.97;;;;;;;2.11;100.00;100085.56;5033634;28;20025;-72
2022/01/28 03:26:37;;;;;;;15.25;7.05;;;;;;;2.23;100.00;100102.47;5030834;28;20029;-72
2022/01/28 03:29:03;;;;;;;14.32;7.05;;;;;;;2.27;100.00;100103.91;5033494;28;20025;-72
2022/01/28 03:31:28;;;;;;;15.40;7.00;;;;;;;2.18;100.00;100091.28;5024481;28;20033;-72
2022/01/28 03:33:54;;;;;;;16.42;7.78;;;;;;;2.10;100.00;100093.69;5030624;28;20494;-72
2022/01/28 03:36:19;;;;;;;13.43;6.93;;;;;;;2.17;100.00;100109.13;5030142;28;20105;-72
2022/01/28 03:38:48;;;;;;;13.32;7.15;;;;;;;2.14;100.00;100089.81;5024588;28;21148;-72
2022/01/28 03:41:17;;;;;;;12.80;6.65;;;;;;;2.21;100.00;100111.56;5030125;28;20024;-72
2022/01/28 03:43:46;;;;;;;;;;;;;;;2.22;100.00;100114.09;5032654;28;20500;-72
2022/01/28 03:46:12;;;;;;;11.27;5.55;;;;;;;2.16;100.00;100115.44;5035887;28;19926;-72
2022/01/28 03:48:38;;;;;;;15.25;7.38;;;;;;;2.21;100.00;100116.91;5023766;28;20061;-72
2022/01/28 03:51:03;;;;;;;17.30;8.15;;;;;;;2.18;100.00;100116.16;5029778;28;20056;-72
2022/01/28 03:53:29;;;;;;;16.98;8.35;;;;;;;2.21;100.00;100128.44;5032691;28;20115;-72
2022/01/28 03:55:57;;;;;;;15.68;8.00;;;;;;;2.22;100.00;100123.94;5031679;28;20084;-72
2022/01/28 03:58:23;;;;;;;16.30;7.90;;;;;;;2.14;100.00;100111.16;5027316;28;20963;-72
2022/01/28 04:00:48;;;;;;;16.75;8.35;;;;;;;2.27;100.00;100129.78;5037179;28;20087;-72
2022/01/28 04:14:37;;;;;;;16.42;7.85;;;;;;;2.10;100.00;100131.94;5030933;28;20091;-78
2022/01/28 04:19:31;;;;;;;15.52;6.82;;;;;;;2.23;100.00;100155.88;5039422;28;20052;-78
2022/01/28 04:21:56;;;;;;;22.80;8.23;;;;;;;2.14;100.00;100151.22;5029520;28;20057;-77
2022/01/28 04:24:21;;;;;;;15.63;7.18;;;;;;;2.12;100.00;100154.03;5038432;28;20037;-78
2022/01/28 04:26:47;;;;;;;13.45;6.43;;;;;;;1.95;100.00;100136.59;5031400;28;20032;-78
2022/01/28 04:29:13;;;;;;;17.00;7.45;;;;;;;2.07;100.00;100164.19;5032395;28;20548;-78
2022/01/28 04:31:42;;;;;;;14.35;7.47;;;;;;;2.06;100.00;100170.47;5032591;28;20100;-78
2022/01/28 04:34:07;;;;;;;15.48;7.68;;;;;;;1.95;100.00;100162.44;5013960;28;20021;-77
2022/01/28 04:36:37;;;;;;;15.52;7.47;;;;;;;2.04;100.00;100184.91;5033133;28;20093;-80
2022/01/28 04:39:12;;;;;;;15.85;7.35;;;;;;;2.01;100.00;100185.16;5034620;28;20030;-79
2022/01/28 04:44:14;;;;;;;13.32;6.63;;;;;;;2.00;100.00;100183.44;5031880;28;20026;-77
2022/01/28 04:46:44;;;;;;;12.65;7.10;;;;;;;2.02;100.00;100185.03;5029350;28;20021;-78
2022/01/28 04:49:16;;;;;;;13.25;7.47;;;;;;;1.91;100.00;100183.19;5033360;28;20021;-79
2022/01/28 04:57:01;;;;;;;14.55;7.63;;;;;;;1.82;100.00;100193.66;5025272;28;20026;-80
2022/01/28 05:02:28;;;;;;;15.40;7.50;;;;;;;1.75;100.00;100179.91;5026959;28;20053;-78
2022/01/28 05:05:10;;;;;;;16.98;7.60;;;;;;;1.83;100.00;100201.53;5040472;28;20017;-81
2022/01/28 05:08:08;;;;;;;20.15;7.80;;;;;;;1.65;100.00;100187.75;5036856;28;20030;-79
2022/01/28 05:27:09;;;;;;;19.20;7.65;;;;;;;1.46;100.00;100201.56;4974910;28;20035;-76
2022/01/28 05:29:35;;;;;;;18.48;8.15;;;;;;;1.50;100.00;100211.06;5016587;28;20040;-76
2022/01/28 05:32:01;;;;;;;18.50;7.90;;;;;;;1.36;100.00;100194.34;5030091;28;20483;-77
2022/01/28 05:34:27;;;;;;;19.15;8.18;;;;;;;1.45;100.00;100215.88;5028006;28;20075;-77
2022/01/28 05:36:55;;;;;;;18.00;7.75;;;;;;;1.45;100.00;100221.22;5028081;28;20041;-76
2022/01/28 05:39:21;;;;;;;20.30;8.20;;;;;;;1.35;100.00;100203.31;5029937;28;20048;-79
2022/01/28 05:41:47;;;;;;;26.00;8.90;;;;;;;1.36;100.00;100216.53;5028197;28;20049;-78
2022/01/28 05:44:12;;;;;;;20.40;8.35;;;;;;;1.30;100.00;100211.63;5028755;28;20027;-76
2022/01/28 05:46:38;;;;;;;21.35;9.10;;;;;;;1.25;100.00;100222.63;5034246;28;20105;-77
2022/01/28 05:49:03;;;;;;;17.50;8.27;;;;;;;1.16;100.00;100225.09;5033032;28;20043;-75
2022/01/28 05:51:28;;;;;;;18.13;8.27;;;;;;;1.16;100.00;100220.63;5024715;28;20123;-79
2022/01/28 05:53:57;;;;;;;21.75;9.05;;;;;;;1.16;100.00;100220.63;5024599;28;20041;-76
2022/01/28 05:56:23;;;;;;;23.52;8.63;;;;;;;1.21;100.00;100238.97;5036359;28;20109;-75
2022/01/28 05:58:48;;;;;;;23.05;9.05;;;;;;;1.29;100.00;100252.59;5031144;28;20081;-79
2022/01/28 06:01:14;;;;;;;18.90;8.68;;;;;;;1.14;100.00;100235.00;5035440;28;20079;-81
2022/01/28 06:03:39;;;;;;;22.92;8.27;;;;;;;1.18;100.00;100249.81;5023168;28;20421;-80
2022/01/28 06:06:04;;;;;;;21.55;8.15;;;;;;;1.15;100.00;100248.22;5033808;28;20028;-79
2022/01/28 06:08:30;;;;;;;21.05;8.85;;;;;;;1.09;100.00;100254.84;5034279;28;20499;-78
2022/01/28 06:10:55;;;;;;;21.73;8.15;;;;;;;1.23;100.00;100295.66;5023932;28;20095;-72
2022/01/28 06:13:20;;;;;;;21.25;9.20;;;;;;;1.17;100.00;100286.28;5031373;28;20621;-79
2022/01/28 06:15:46;;;;;;;21.38;8.73;;;;;;;1.28;100.00;100289.09;5040215;28;20029;-76
2022/01/28 06:18:12;;;;;;;19.63;8.63;;;;;;;1.46;100.00;100310.06;5026587;28;20033;-78
2022/01/28 06:20:38;;;;;;;19.40;8.63;;;;;;;1.61;100.00;100310.81;5038646;28;20032;-79
2022/01/28 06:23:04;;;;;;;21.23;8.00;;;;;;;1.66;100.00;100311.31;5033832;28;20025;-79
2022/01/28 06:25:30;;;;;;;19.05;8.82;;;;;;;1.64;100.00;100297.25;5035933;28;20028;-78
2022/01/28 06:27:55;;;;;;;21.05;8.50;;;;;;;1.69;100.00;100297.75;5031337;28;20026;-77
2022/01/28 06:30:22;;;;;;;18.92;8.23;;;;;;;1.86;100.00;100326.78;5034451;28;20397;-78
2022/01/28 06:32:48;;;;;;;21.63;8.82;;;;;;;1.84;100.00;100318.00;5033799;28;20033;-80
2022/01/28 06:35:14;;;;;;;22.90;8.57;;;;;;;1.87;100.00;100307.13;5030847;28;20478;-79
2022/01/28 06:37:42;;;;;;;14.43;7.28;;;;;;;2.09;100.00;100340.25;5030793;28;20029;-75
2022/01/28 06:40:10;;;;;;;18.80;8.15;;;;;;;2.11;100.00;100330.31;5033134;28;20342;-76
2022/01/28 06:42:36;;;;;;;20.65;7.60;;;;;;;2.11;100.00;100330.31;5033292;28;20025;-80
2022/01/28 06:45:03;;;;;;;17.58;8.07;;;;;;;2.04;100.00;100326.38;5027880;28;20013;-79
2022/01/28 06:47:28;;;;;;;17.67;8.27;;;;;;;1.98;100.00;100330.34;5047193;28;20068;-78
2022/01/28 06:49:54;;;;;;;18.30;7.72;;;;;;;2.02;100.00;100342.53;5035305;28;20419;-77
2022/01/28 06:52:20;;;;;;;17.10;7.95;;;;;;;1.91;100.00;100329.09;5033300;28;20056;-75
2022/01/28 06:54:46;;;;;;;15.80;7.82;;;;;;;1.98;100.00;100347.22;5034185;28;20056;-77
2022/01/28 06:57:11;;;;;;;16.65;7.95;;;;;;;1.95;100.00;100341.25;5018455;28;20030;-77
2022/01/28 06:59:36;;;;;;;18.13;8.07;;;;;;;1.91;100.00;100327.28;5027957;28;20017;-79
2022/01/28 07:02:02;;;;;;;24.13;9.40;;;;;;;2.07;100.00;100356.41;5031321;28;20026;-73
2022/01/28 07:04:27;;;;;;;22.40;9.07;;;;;;;2.05;100.00;100349.47;5028835;28;20040;-71
2022/01/28 07:06:53;;;;;;;16.92;8.10;;;;;;;2.04;100.00;100347.75;5051179;28;20116;-78
2022/01/28 07:09:18;;;;;;;18.65;8.63;;;;;;;1.99;100.00;100332.03;5031915;28;20036;-76
2022/01/28 07:11:43;;;;;;;19.85;9.18;;;;;;;1.90;100.00;100330.91;5035684;28;20021;-76
2022/01/28 07:14:09;;;;;;;20.02;8.95;;;;;;;2.15;100.00;100370.03;5035181;28;20039;-76
2022/01/28 07:16:35;;;;;;;16.35;8.00;;;;;;;2.05;100.00;100341.47;5031419;28;20022;-74
2022/01/28 07:19:01;;;;;;;19.98;8.98;;;;;;;2.09;100.00;100353.59;5030311;28;20037;-74
2022/01/28 07:21:26;;;;;;;20.20;8.85;;;;;;;2.20;100.00;100356.34;5032917;28;20098;-74
2022/01/28 07:23:52;;;;;;;20.35;8.82;;;;;;;2.11;100.00;100341.84;5033790;28;20487;-76
2022/01/28 07:26:17;;;;;;;24.02;9.80;;;;;;;2.18;100.00;100345.78;5033833;28;20018;-77
2022/01/28 07:28:42;;;;;;;18.63;8.68;;;;;;;2.25;100.00;100337.31;5052159;28;20164;-77
2022/01/28 07:31:14;;;;;;;19.67;8.55;;;;;;;2.28;100.00;100331.75;5032763;28;20029;-77
2022/01/28 07:33:39;;;;;;;26.08;9.57;;;;;;;2.32;100.00;100344.75;5033264;28;20041;-76
2022/01/28 07:36:05;;;;;;;21.80;8.43;;;;;;;2.26;100.00;100334.53;5036861;28;20026;-78
2022/01/28 07:38:30;;;;;;;22.40;10.77;;;;;;;2.14;100.00;100324.75;5034990;28;20067;-78
2022/01/28 07:40:57;;;;;;;21.52;9.13;;;;;;;2.29;100.00;100365.50;5036652;28;20025;-76
2022/01/28 07:43:23;;;;;;;20.88;8.40;;;;;;;2.21;100.00;100360.72;5031295;28;20426;-77
2022/01/28 07:45:48;;;;;;;23.45;8.45;;;;;;;2.38;100.00;100384.41;5034238;28;20021;-75
2022/01/28 07:48:14;;;;;;;18.70;8.93;;;;;;;2.37;100.00;100395.19;5033087;28;20029;-76
2022/01/28 07:50:39;;;;;;;19.70;8.90;;;;;;;2.30;100.00;100369.88;5024542;28;20026;-76
2022/01/28 07:53:05;;;;;;;20.45;8.63;;;;;;;2.41;100.00;100391.31;5033221;28;20159;-75
2022/01/28 07:55:30;;;;;;;19.45;8.85;;;;;;;2.44;100.00;100385.75;5032780;28;20022;-74
2022/01/28 07:57:56;;;;;;;24.55;9.35;;;;;;;2.41;100.00;100388.63;5033018;28;20033;-74
2022/01/28 08:00:26;;;;;;;17.52;8.35;;;;;;;2.51;100.00;100392.34;5031761;28;20033;-74
2022/01/28 08:02:51;;;;;;;18.00;8.63;;;;;;;2.47;100.00;100398.03;5031734;28;20613;-74
2022/01/28 08:05:17;;;;;;;17.35;8.15;;;;;;;2.38;100.00;100387.06;5024967;28;20049;-75
2022/01/28 08:07:43;;;;;;;22.30;8.48;;;;;;;2.52;100.00;100403.91;5032276;28;20113;-74
2022/01/28 08:10:09;;;;;;;18.77;8.15;;;;;;;2.54;100.00;100396.59;5024857;28;20520;-78
2022/01/28 08:12:46;;;;;;;15.93;8.32;;;;;;;2.56;100.00;100406.22;5031373;28;20022;-74
2022/01/28 08:15:11;;;;;;;17.20;8.48;;;;;;;2.61;100.00;100416.56;5037084;28;20029;-76
2022/01/28 08:17:37;;;;;;;18.63;8.13;;;;;;;2.60;100.00;100415.72;5047069;28;20047;-77
2022/01/28 08:20:02;;;;;;;19.27;8.10;;;;;;;2.67;100.00;100413.44;5059618;28;20005;-79
2022/01/28 08:22:28;;;;;;;18.27;8.55;;;;;;;2.76;100.00;100422.63;5046189;28;20060;-78
2022/01/28 08:24:53;;;;;;;20.10;8.68;;;;;;;2.88;100.00;100435.06;5052655;28;20017;-76
2022/01/28 08:27:18;;;;;;;17.40;7.75;;;;;;;2.79;99.72;100391.16;5054722;28;20630;-80
2022/01/28 08:29:43;;;;;;;18.75;8.32;;;;;;;2.94;99.81;100415.91;5045232;28;20030;-75
2022/01/28 08:32:09;;;;;;;19.95;8.20;;;;;;;2.83;99.27;100403.34;5045251;28;20025;-75
2022/01/28 08:34:34;;;;;;;14.77;7.88;;;;;;;2.88;99.15;100420.84;5036143;28;20025;-76
2022/01/28 08:37:03;;;;;;;17.88;7.50;;;;;;;2.94;98.66;100415.06;5041094;28;20041;-73
2022/01/28 08:39:29;;;;;;;16.75;7.65;;;;;;;3.02;98.01;100463.44;5050863;28;20013;-76
2022/01/28 08:41:55;;;;;;;18.30;7.68;;;;;;;3.00;99.09;100462.72;5050248;28;20018;-73
2022/01/28 08:44:20;;;;;;;16.40;8.57;;;;;;;3.00;98.55;100450.19;5053253;28;20013;-75
2022/01/28 08:46:45;;;;;;;20.45;8.40;;;;;;;3.06;98.63;100455.06;5051107;28;20033;-73
2022/01/28 08:49:10;;;;;;;16.13;7.65;;;;;;;3.12;98.77;100453.78;5049803;28;20025;-75
2022/01/28 08:51:36;;;;;;;17.33;7.35;;;;;;;2.91;97.89;100425.94;5047052;28;20076;-75
2022/01/28 08:54:01;;;;;;;21.15;8.77;;;;;;;3.09;97.42;100448.63;5060755;28;20033;-73
2022/01/28 08:56:26;;;;;;;16.25;7.90;;;;;;;3.17;97.36;100453.41;5063282;28;20036;-75
2022/01/28 08:58:52;;;;;;;17.88;8.10;;;;;;;3.22;96.23;100446.78;5049447;28;20044;-75
2022/01/28 09:01:17;;;;;;;16.73;7.93;;;;;;;3.34;96.59;100465.53;5046077;28;20036;-74
2022/01/28 09:03:44;;;;;;;16.55;7.68;;;;;;;3.39;95.90;100463.34;5050731;28;20029;-73
2022/01/28 09:06:09;;;;;;;16.88;8.10;;;;;;;3.41;95.54;100456.09;5048242;28;20018;-72
2022/01/28 09:08:35;;;;;;;15.07;7.22;;;;;;;3.44;95.25;100443.31;5048749;28;20048;-76
2022/01/28 09:11:28;;;;;;;20.90;7.38;;;;;;;3.68;93.51;100474.50;5042107;28;20029;-71
2022/01/28 09:13:55;;;;;;;17.30;7.15;;;;;;;3.70;93.60;100476.09;5022940;28;20033;-72
2022/01/28 09:16:21;;;;;;;19.45;7.63;;;;;;;3.58;93.33;100458.28;5038485;28;20422;-70
2022/01/28 09:18:47;;;;;;;15.85;6.53;;;;;;;3.56;93.90;100446.84;5022006;28;20025;-69
2022/01/28 09:21:13;;;;;;;17.80;6.63;;;;;;;3.72;92.21;100457.22;5027736;28;20033;-70
2022/01/28 09:23:38;;;;;;;17.95;6.13;;;;;;;3.76;91.89;100471.25;5026229;28;20025;-70
2022/01/28 09:26:03;;;;;;;15.85;6.30;;;;;;;3.82;91.44;100473.44;5030043;28;20071;-70
2022/01/28 09:28:29;;;;;;;14.07;6.38;;;;;;;3.76;90.05;100439.97;5021184;28;20030;-70
2022/01/28 09:30:57;;;;;;;12.55;5.75;;;;;;;4.16;89.69;100467.13;5032644;28;20626;-71
2022/01/28 09:33:22;;;;;;;14.52;6.53;;;;;;;4.53;86.85;100477.63;5026478;28;20030;-71
2022/01/28 09:35:48;;;;;;;12.00;5.72;;;;;;;4.77;85.06;100468.56;5027556;28;20108;-70
2022/01/28 09:38:14;;;;;;;12.25;5.50;;;;;;;5.55;81.76;100466.56;5033445;28;20026;-70
2022/01/28 09:40:39;;;;;;;13.10;5.25;;;;;;;5.69;80.32;100450.13;5033040;28;20030;-70
2022/01/28 09:43:07;;;;;;;10.00;4.97;;;;;;;7.31;72.46;100442.91;5018972;28;20046;-71
2022/01/28 09:45:33;;;;;;;14.38;4.72;;;;;;;8.38;67.78;100456.13;5017576;28;20109;-70
2022/01/28 09:47:59;;;;;;;13.68;6.40;;;;;;;8.59;66.55;100449.66;5037676;28;20067;-71
2022/01/28 09:50:30;;;;;;;11.30;4.90;;;;;;;8.71;65.06;100461.97;5037522;28;20029;-71
2022/01/28 09:52:57;;;;;;;12.77;5.05;;;;;;;8.33;66.42;100467.38;5034939;28;20025;-71
2022/01/28 09:55:24;;;;;;;12.88;4.78;;;;;;;7.81;68.11;100464.25;5035751;28;20025;-68
2022/01/28 09:57:59;;;;;;;12.50;4.78;;;;;;;8.10;66.21;100472.25;5037399;28;20033;-68
2022/01/28 10:00:26;;;;;;;11.75;4.80;;;;;;;7.28;69.14;100488.09;5030575;28;20018;-68
2022/01/28 10:02:58;;;;;;;11.88;5.00;;;;;;;7.58;69.80;100471.78;5028538;28;20044;-71
2022/01/28 10:05:34;;;;;;;12.70;5.28;;;;;;;7.97;69.26;100478.97;5029126;28;20085;-70
2022/01/28 10:08:00;;;;;;;11.25;4.60;;;;;;;9.32;64.73;100476.63;5034882;28;20025;-69
2022/01/28 10:10:25;;;;;;;11.77;4.95;;;;;;;9.08;64.28;100469.13;5034741;28;20104;-69
2022/01/28 10:13:09;;;;;;;12.15;5.28;;;;;;;8.60;65.76;100465.72;5034266;28;20080;-69
2022/01/28 10:15:35;;;;;;;10.25;4.75;;;;;;;8.31;66.21;100472.06;5030051;28;20022;-68
2022/01/28 10:18:00;;;;;;;13.10;4.63;;;;;;;8.04;67.64;100475.56;5024298;28;20036;-69
2022/01/28 10:20:26;;;;;;;9.35;4.63;;;;;;;7.57;69.10;100469.22;5037384;28;20047;-74
2022/01/28 10:22:58;;;;;;;10.05;4.78;;;;;;;7.68;69.16;100469.94;5036882;28;20033;-79
2022/01/28 10:25:28;;;;;;;13.90;4.72;;;;;;;9.14;64.50;100463.97;5033814;28;20022;-74
2022/01/28 10:28:12;;;;;;;10.75;4.25;;;;;;;10.21;60.56;100456.69;5032792;28;20033;-75
2022/01/28 10:30:40;;;;;;;15.68;4.97;;;;;;;10.79;58.24;100460.53;5043784;28;20032;-77
2022/01/28 10:33:17;;;;;;;13.70;4.50;;;;;;;9.60;59.25;100463.88;5028898;28;20482;-74
2022/01/28 10:35:54;;;;;;;10.18;4.47;;;;;;;9.97;58.98;100457.38;5036925;28;20021;-76
2022/01/28 10:38:33;;;;;;;10.40;4.13;;;;;;;10.89;55.58;100451.25;5033940;28;20025;-74
2022/01/28 10:41:20;;;;;;;9.90;4.15;;;;;;;10.73;56.34;100446.63;5034044;28;20090;-73
2022/01/28 10:43:52;;;;;;;7.65;4.13;;;;;;;10.36;56.72;100455.09;5029411;28;20095;-72
2022/01/28 10:46:26;;;;;;;8.10;4.03;;;;;;;9.91;58.08;100449.91;5026203;28;20040;-73
2022/01/28 10:49:03;;;;;;;13.18;4.75;;;;;;;9.05;61.53;100467.56;5040692;28;20426;-72
2022/01/28 10:51:44;;;;;;;10.77;4.32;;;;;;;9.53;61.27;100460.94;5028315;28;20097;-72
2022/01/28 10:54:10;;;;;;;10.05;4.22;;;;;;;11.67;56.12;100460.00;5037809;28;20168;-70
2022/01/28 10:56:54;;;;;;;12.10;4.00;;;;;;;13.52;50.39;100446.09;5029976;28;20520;-74
2022/01/28 10:59:21;;;;;;;9.65;3.80;;;;;;;12.53;51.53;100461.22;5034691;28;20041;-76
2022/01/28 11:01:48;;;;;;;8.90;2.90;;;;;;;10.66;54.66;100472.69;5034581;28;20155;-76
2022/01/28 11:04:17;;;;;;;8.93;3.55;;;;;;;9.20;59.25;100478.72;5045369;28;20025;-75
2022/01/28 11:06:44;;;;;;;12.82;2.88;;;;;;;7.78;63.53;100479.84;5053571;28;20022;-76
2022/01/28 11:09:11;;;;;;;14.57;5.85;;;;;;;7.18;65.80;100482.72;5053521;28;20067;-75
2022/01/28 11:11:38;;;;;;;15.82;4.47;;;;;;;7.11;66.97;100495.88;5049935;28;20029;-75
2022/01/28 11:14:05;;;;;;;12.70;4.20;;;;;;;6.78;68.41;100492.53;5059613;28;20029;-75
2022/01/28 11:16:31;;;;;;;12.25;4.00;;;;;;;7.29;66.42;100498.72;5055808;28;20033;-77
2022/01/28 11:18:57;;;;;;;9.82;4.07;;;;;;;7.42;66.45;100495.75;5052165;28;20013;-76
2022/01/28 11:22:03;;;;;;;10.73;4.40;;;;;;;7.07;66.35;100482.81;5050893;28;20026;-75
2022/01/28 11:24:47;;;;;;;8.25;3.47;;;;;;;7.24;67.13;100501.84;5048401;28;20121;-75
2022/01/28 11:27:31;;;;;;;7.55;3.97;;;;;;;7.51;66.71;100492.19;5046619;28;20018;-75
2022/01/28 11:30:25;;;;;;;11.32;3.92;;;;;;;7.99;65.61;100488.63;5040440;28;20051;-74
2022/01/28 11:32:53;;;;;;;12.88;4.57;;;;;;;8.83;64.69;100487.75;5039575;28;20018;-74
2022/01/28 11:35:21;;;;;;;10.10;4.20;;;;;;;10.53;58.14;100466.84;5025858;28;20029;-75
2022/01/28 11:37:46;;;;;;;7.32;3.63;;;;;;;11.18;55.79;100480.59;5033267;28;20028;-75
2022/01/28 11:40:14;;;;;;;7.32;2.70;;;;;;;11.11;55.12;100485.00;5030224;28;20025;-75
2022/01/28 11:42:40;;;;;;;8.63;3.90;;;;;;;10.45;55.92;100472.22;5032067;28;20105;-77
2022/01/28 11:45:08;;;;;;;7.20;3.25;;;;;;;10.39;57.19;100467.47;5022092;28;20021;-69
2022/01/28 11:47:36;;;;;;;7.40;2.80;;;;;;;9.50;58.98;100468.50;5015044;28;20045;-68
2022/01/28 11:50:16;;;;;;;5.90;3.03;;;;;;;9.62;58.19;100475.38;5014460;28;20046;-70
2022/01/28 11:52:51;;;;;;;14.85;5.55;;;;;;;9.46;58.77;100462.56;5016076;28;20034;-69
2022/01/28 11:55:24;;;;;;;7.22;3.65;;;;;;;10.97;54.58;100461.25;5027900;28;20108;-69
2022/01/28 11:57:55;;;;;;;7.60;3.05;;;;;;;11.25;53.48;100469.13;5030027;28;20061;-69
2022/01/28 12:00:23;;;;;;;8.77;4.00;;;;;;;10.21;55.31;100473.75;5020873;28;20030;-67
2022/01/28 12:02:50;;;;;;;8.18;3.25;;;;;;;9.08;58.45;100485.31;5025769;28;20034;-69
2022/01/28 12:05:31;;;;;;;13.13;3.45;;;;;;;8.35;60.11;100476.13;5028045;28;20033;-69
2022/01/28 12:08:01;;;;;;;9.57;3.47;;;;;;;8.55;61.00;100470.72;5028120;28;20021;-69
2022/01/28 12:10:33;;;;;;;9.25;3.13;;;;;;;8.60;60.70;100487.28;5030527;28;20021;-71
2022/01/28 12:13:01;;;;;;;10.02;3.38;;;;;;;8.35;61.18;100483.38;5024171;28;20031;-71
2022/01/28 12:15:31;;;;;;;9.65;3.42;;;;;;;7.63;63.36;100472.22;5027785;28;20025;-71
2022/01/28 12:18:10;;;;;;;8.77;3.30;;;;;;;7.32;65.42;100476.06;5022662;28;20030;-69
2022/01/28 12:20:37;;;;;;;7.78;3.63;;;;;;;7.34;66.45;100476.78;5028503;28;20028;-69
2022/01/28 12:23:11;;;;;;;8.05;3.28;;;;;;;7.31;64.67;100472.53;5029144;28;20497;-70
2022/01/28 12:25:36;;;;;;;8.75;3.20;;;;;;;6.97;65.29;100475.59;5025762;28;20036;-73
2022/01/28 12:28:21;;;;;;;9.77;2.50;;;;;;;6.63;64.75;100441.94;5026731;28;20037;-70
2022/01/28 12:30:49;;;;;;;6.00;2.90;;;;;;;6.36;65.27;100451.50;5023318;28;20026;-68
2022/01/28 12:33:21;;;;;;;9.27;3.03;;;;;;;6.25;67.01;100465.88;5022778;28;20045;-68
2022/01/28 12:35:50;;;;;;;9.82;3.50;;;;;;;6.35;67.10;100457.88;5030412;28;20300;-68